Aviation Digital Data Service (ADDS)

Output produced by METARs form (1839 UTC 19 April 2019)
found at http://www.aviationweather.gov/metar/data/
 
Forecast for: ESKN (SKAVSTA/STOCKHO , SE)
Text: TAF ESKN 191730Z 1918/2018 01007KT CAVOK
Forecast period: 1800 UTC 19 April 2019 to 1300 UTC 20 April 2019
Forecast type: FROM: standard forecast or significant change
Winds: from the N (10 degrees) at 8 MPH (7 knots; 3.6 m/s)
Visibility: 6 or more miles 10+ km)
Ceiling: unknown
Clouds: missing
Weather: NSW  (no significant weather)
Text: BECMG 2013/2015 15010KT
Forecast period: 1300 to 1800 UTC 20 April 2019
Forecast type: BECOMING: Conditions expected to become as follows by 1500 UTC 20 April 2019
Winds: from the SSE (150 degrees) at 12 MPH (10 knots; 5.1 m/s)
Visibility: 6 or more miles 10+ km)
Ceiling: unknown
Clouds: missing
Weather: NSW  (no significant weather)